sensor_id;sensor_type;location;lat;lon;timestamp;P1;durP1;ratioP1;P2;durP2;ratioP2
54123;SDS011;55741;53.252;5.788;2023-02-23T00:00:10;120.85;;;55.28;;
54123;SDS011;55741;53.252;5.788;2023-02-23T00:02:48;112.90;;;52.53;;
54123;SDS011;55741;53.252;5.788;2023-02-23T00:05:15;119.50;;;51.80;;
54123;SDS011;55741;53.252;5.788;2023-02-23T00:07:42;126.90;;;54.45;;
54123;SDS011;55741;53.252;5.788;2023-02-23T00:10:12;111.78;;;51.65;;
54123;SDS011;55741;53.252;5.788;2023-02-23T00:12:39;110.78;;;50.72;;
54123;SDS011;55741;53.252;5.788;2023-02-23T00:15:07;127.85;;;53.88;;
54123;SDS011;55741;53.252;5.788;2023-02-23T00:17:34;119.95;;;52.33;;
54123;SDS011;55741;53.252;5.788;2023-02-23T00:20:05;123.32;;;51.10;;
54123;SDS011;55741;53.252;5.788;2023-02-23T00:22:39;120.93;;;53.58;;
54123;SDS011;55741;53.252;5.788;2023-02-23T00:25:09;122.20;;;50.63;;
54123;SDS011;55741;53.252;5.788;2023-02-23T00:27:42;116.32;;;52.70;;
54123;SDS011;55741;53.252;5.788;2023-02-23T00:30:11;120.30;;;53.47;;
54123;SDS011;55741;53.252;5.788;2023-02-23T00:32:38;130.27;;;54.50;;
54123;SDS011;55741;53.252;5.788;2023-02-23T00:35:05;128.10;;;52.70;;
54123;SDS011;55741;53.252;5.788;2023-02-23T00:37:43;116.57;;;51.20;;
54123;SDS011;55741;53.252;5.788;2023-02-23T00:40:10;122.38;;;51.85;;
54123;SDS011;55741;53.252;5.788;2023-02-23T00:42:39;121.45;;;52.80;;
54123;SDS011;55741;53.252;5.788;2023-02-23T00:45:05;128.05;;;53.75;;
54123;SDS011;55741;53.252;5.788;2023-02-23T00:47:35;126.15;;;53.38;;
54123;SDS011;55741;53.252;5.788;2023-02-23T00:50:02;123.30;;;51.63;;
54123;SDS011;55741;53.252;5.788;2023-02-23T00:52:29;126.55;;;52.22;;
54123;SDS011;55741;53.252;5.788;2023-02-23T00:54:55;115.40;;;50.95;;
54123;SDS011;55741;53.252;5.788;2023-02-23T00:57:21;129.15;;;54.03;;
54123;SDS011;55741;53.252;5.788;2023-02-23T00:59:47;119.35;;;53.33;;
54123;SDS011;55741;53.252;5.788;2023-02-23T01:02:13;127.25;;;52.33;;
54123;SDS011;55741;53.252;5.788;2023-02-23T01:04:39;125.53;;;54.17;;
54123;SDS011;55741;53.252;5.788;2023-02-23T01:07:05;125.80;;;53.92;;
54123;SDS011;55741;53.252;5.788;2023-02-23T01:09:31;127.78;;;52.42;;
54123;SDS011;55741;53.252;5.788;2023-02-23T01:11:59;119.88;;;53.20;;
54123;SDS011;55741;53.252;5.788;2023-02-23T01:14:26;115.45;;;51.92;;
54123;SDS011;55741;53.252;5.788;2023-02-23T01:16:53;109.63;;;47.80;;
54123;SDS011;55741;53.252;5.788;2023-02-23T01:19:19;125.47;;;51.67;;
54123;SDS011;55741;53.252;5.788;2023-02-23T01:21:46;113.22;;;49.58;;
54123;SDS011;55741;53.252;5.788;2023-02-23T01:24:12;119.95;;;49.22;;
54123;SDS011;55741;53.252;5.788;2023-02-23T01:26:41;119.65;;;50.28;;
54123;SDS011;55741;53.252;5.788;2023-02-23T01:29:10;109.18;;;48.33;;
54123;SDS011;55741;53.252;5.788;2023-02-23T01:31:40;110.20;;;47.03;;
54123;SDS011;55741;53.252;5.788;2023-02-23T01:34:08;109.18;;;47.85;;
54123;SDS011;55741;53.252;5.788;2023-02-23T01:36:36;99.78;;;44.25;;
54123;SDS011;55741;53.252;5.788;2023-02-23T01:39:11;101.18;;;47.50;;
54123;SDS011;55741;53.252;5.788;2023-02-23T01:41:42;114.72;;;46.42;;
54123;SDS011;55741;53.252;5.788;2023-02-23T01:46:38;100.93;;;45.65;;
54123;SDS011;55741;53.252;5.788;2023-02-23T01:49:28;96.28;;;44.58;;
54123;SDS011;55741;53.252;5.788;2023-02-23T01:51:59;104.90;;;44.75;;
54123;SDS011;55741;53.252;5.788;2023-02-23T01:54:32;103.22;;;44.72;;
54123;SDS011;55741;53.252;5.788;2023-02-23T01:57:12;101.70;;;44.17;;
54123;SDS011;55741;53.252;5.788;2023-02-23T01:59:42;98.85;;;43.80;;
54123;SDS011;55741;53.252;5.788;2023-02-23T02:02:10;95.97;;;44.17;;
54123;SDS011;55741;53.252;5.788;2023-02-23T02:04:44;94.30;;;43.13;;
54123;SDS011;55741;53.252;5.788;2023-02-23T02:07:14;90.32;;;43.47;;
54123;SDS011;55741;53.252;5.788;2023-02-23T02:09:43;87.30;;;41.90;;
54123;SDS011;55741;53.252;5.788;2023-02-23T02:12:32;83.40;;;42.15;;
54123;SDS011;55741;53.252;5.788;2023-02-23T02:14:58;91.30;;;44.15;;
54123;SDS011;55741;53.252;5.788;2023-02-23T02:34:34;83.82;;;38.53;;
54123;SDS011;55741;53.252;5.788;2023-02-23T02:40:18;78.95;;;38.30;;
54123;SDS011;55741;53.252;5.788;2023-02-23T02:45:24;80.07;;;38.80;;
54123;SDS011;55741;53.252;5.788;2023-02-23T02:48:00;69.95;;;37.38;;
54123;SDS011;55741;53.252;5.788;2023-02-23T02:56:07;75.68;;;36.42;;
54123;SDS011;55741;53.252;5.788;2023-02-23T02:58:36;72.43;;;37.92;;
54123;SDS011;55741;53.252;5.788;2023-02-23T03:01:05;80.18;;;38.42;;
54123;SDS011;55741;53.252;5.788;2023-02-23T03:03:51;76.85;;;37.00;;
54123;SDS011;55741;53.252;5.788;2023-02-23T03:06:46;80.43;;;38.45;;
54123;SDS011;55741;53.252;5.788;2023-02-23T03:09:46;74.72;;;38.15;;
54123;SDS011;55741;53.252;5.788;2023-02-23T03:21:11;79.50;;;36.53;;
54123;SDS011;55741;53.252;5.788;2023-02-23T03:27:16;75.28;;;36.65;;
54123;SDS011;55741;53.252;5.788;2023-02-23T03:30:05;75.63;;;37.22;;
54123;SDS011;55741;53.252;5.788;2023-02-23T03:33:11;75.15;;;36.42;;
54123;SDS011;55741;53.252;5.788;2023-02-23T03:36:07;82.68;;;38.00;;
54123;SDS011;55741;53.252;5.788;2023-02-23T03:39:09;77.43;;;38.00;;
54123;SDS011;55741;53.252;5.788;2023-02-23T03:42:09;87.00;;;39.20;;
54123;SDS011;55741;53.252;5.788;2023-02-23T03:44:59;86.43;;;38.42;;
54123;SDS011;55741;53.252;5.788;2023-02-23T03:47:48;82.13;;;39.47;;
54123;SDS011;55741;53.252;5.788;2023-02-23T03:50:37;87.53;;;39.55;;
54123;SDS011;55741;53.252;5.788;2023-02-23T03:53:31;84.07;;;40.03;;
54123;SDS011;55741;53.252;5.788;2023-02-23T03:56:24;76.47;;;38.47;;
54123;SDS011;55741;53.252;5.788;2023-02-23T03:59:11;81.10;;;37.92;;
54123;SDS011;55741;53.252;5.788;2023-02-23T04:02:00;77.25;;;36.42;;
54123;SDS011;55741;53.252;5.788;2023-02-23T04:04:46;83.05;;;39.60;;
54123;SDS011;55741;53.252;5.788;2023-02-23T04:07:32;84.05;;;37.60;;
54123;SDS011;55741;53.252;5.788;2023-02-23T04:10:17;84.18;;;40.08;;
54123;SDS011;55741;53.252;5.788;2023-02-23T04:13:09;86.30;;;39.47;;
54123;SDS011;55741;53.252;5.788;2023-02-23T04:15:43;86.30;;;38.03;;
54123;SDS011;55741;53.252;5.788;2023-02-23T04:18:15;84.35;;;39.78;;
54123;SDS011;55741;53.252;5.788;2023-02-23T04:20:44;79.05;;;38.38;;
54123;SDS011;55741;53.252;5.788;2023-02-23T04:23:10;86.57;;;39.40;;
54123;SDS011;55741;53.252;5.788;2023-02-23T04:25:36;89.53;;;41.58;;
54123;SDS011;55741;53.252;5.788;2023-02-23T04:28:02;90.95;;;41.90;;
54123;SDS011;55741;53.252;5.788;2023-02-23T04:30:28;83.85;;;41.10;;
54123;SDS011;55741;53.252;5.788;2023-02-23T04:32:54;87.53;;;41.60;;
54123;SDS011;55741;53.252;5.788;2023-02-23T04:35:21;88.43;;;41.33;;
54123;SDS011;55741;53.252;5.788;2023-02-23T04:37:47;91.63;;;42.40;;
54123;SDS011;55741;53.252;5.788;2023-02-23T04:40:13;87.65;;;41.10;;
54123;SDS011;55741;53.252;5.788;2023-02-23T04:42:39;85.40;;;41.42;;
54123;SDS011;55741;53.252;5.788;2023-02-23T04:45:06;88.00;;;41.67;;
54123;SDS011;55741;53.252;5.788;2023-02-23T04:47:46;95.57;;;41.45;;
54123;SDS011;55741;53.252;5.788;2023-02-23T04:50:12;89.10;;;40.08;;
54123;SDS011;55741;53.252;5.788;2023-02-23T04:52:38;94.53;;;41.20;;
54123;SDS011;55741;53.252;5.788;2023-02-23T04:55:05;90.38;;;43.10;;
54123;SDS011;55741;53.252;5.788;2023-02-23T04:57:33;96.38;;;41.60;;
54123;SDS011;55741;53.252;5.788;2023-02-23T04:59:59;90.00;;;42.00;;
54123;SDS011;55741;53.252;5.788;2023-02-23T05:02:25;99.55;;;42.67;;
54123;SDS011;55741;53.252;5.788;2023-02-23T05:04:51;96.13;;;43.35;;
54123;SDS011;55741;53.252;5.788;2023-02-23T05:07:17;96.93;;;41.78;;
54123;SDS011;55741;53.252;5.788;2023-02-23T05:09:43;94.00;;;42.65;;
54123;SDS011;55741;53.252;5.788;2023-02-23T05:12:09;98.38;;;43.17;;
54123;SDS011;55741;53.252;5.788;2023-02-23T05:14:36;99.63;;;43.70;;
54123;SDS011;55741;53.252;5.788;2023-02-23T05:17:02;89.80;;;41.25;;
54123;SDS011;55741;53.252;5.788;2023-02-23T05:19:28;97.78;;;42.33;;
54123;SDS011;55741;53.252;5.788;2023-02-23T05:21:54;86.75;;;40.83;;
54123;SDS011;55741;53.252;5.788;2023-02-23T05:24:20;86.07;;;39.85;;
54123;SDS011;55741;53.252;5.788;2023-02-23T05:26:46;80.72;;;38.38;;
54123;SDS011;55741;53.252;5.788;2023-02-23T05:29:12;80.20;;;37.88;;
54123;SDS011;55741;53.252;5.788;2023-02-23T05:31:38;81.13;;;39.72;;
54123;SDS011;55741;53.252;5.788;2023-02-23T05:34:04;73.03;;;36.08;;
54123;SDS011;55741;53.252;5.788;2023-02-23T05:36:36;73.28;;;34.95;;
54123;SDS011;55741;53.252;5.788;2023-02-23T05:39:02;77.32;;;38.33;;
54123;SDS011;55741;53.252;5.788;2023-02-23T05:41:28;72.28;;;36.20;;
54123;SDS011;55741;53.252;5.788;2023-02-23T05:43:54;68.85;;;35.88;;
54123;SDS011;55741;53.252;5.788;2023-02-23T05:46:24;70.35;;;35.72;;
54123;SDS011;55741;53.252;5.788;2023-02-23T05:48:54;72.25;;;35.70;;
54123;SDS011;55741;53.252;5.788;2023-02-23T05:51:25;67.53;;;34.50;;
54123;SDS011;55741;53.252;5.788;2023-02-23T05:53:53;66.47;;;34.45;;
54123;SDS011;55741;53.252;5.788;2023-02-23T05:56:20;69.07;;;36.00;;
54123;SDS011;55741;53.252;5.788;2023-02-23T05:58:50;71.95;;;35.10;;
54123;SDS011;55741;53.252;5.788;2023-02-23T06:01:22;72.70;;;34.92;;
54123;SDS011;55741;53.252;5.788;2023-02-23T06:03:48;73.88;;;35.60;;
54123;SDS011;55741;53.252;5.788;2023-02-23T06:06:15;67.35;;;34.65;;
54123;SDS011;55741;53.252;5.788;2023-02-23T06:08:41;67.32;;;34.90;;
54123;SDS011;55741;53.252;5.788;2023-02-23T06:11:07;63.35;;;33.05;;
54123;SDS011;55741;53.252;5.788;2023-02-23T06:13:33;61.42;;;33.35;;
54123;SDS011;55741;53.252;5.788;2023-02-23T06:16:01;61.60;;;30.92;;
54123;SDS011;55741;53.252;5.788;2023-02-23T06:18:27;61.85;;;31.95;;
54123;SDS011;55741;53.252;5.788;2023-02-23T06:20:53;63.95;;;32.92;;
54123;SDS011;55741;53.252;5.788;2023-02-23T06:23:20;61.28;;;32.45;;
54123;SDS011;55741;53.252;5.788;2023-02-23T06:25:46;63.13;;;32.60;;
54123;SDS011;55741;53.252;5.788;2023-02-23T06:28:12;59.25;;;32.60;;
54123;SDS011;55741;53.252;5.788;2023-02-23T06:30:38;56.67;;;31.10;;
54123;SDS011;55741;53.252;5.788;2023-02-23T06:33:04;61.92;;;32.05;;
54123;SDS011;55741;53.252;5.788;2023-02-23T06:35:30;57.50;;;30.90;;
54123;SDS011;55741;53.252;5.788;2023-02-23T06:37:57;56.75;;;31.77;;
54123;SDS011;55741;53.252;5.788;2023-02-23T06:40:24;60.65;;;32.58;;
54123;SDS011;55741;53.252;5.788;2023-02-23T06:42:50;60.00;;;29.45;;
54123;SDS011;55741;53.252;5.788;2023-02-23T06:45:16;54.20;;;30.02;;
54123;SDS011;55741;53.252;5.788;2023-02-23T06:47:43;52.53;;;27.88;;
54123;SDS011;55741;53.252;5.788;2023-02-23T06:50:10;54.70;;;29.23;;
54123;SDS011;55741;53.252;5.788;2023-02-23T06:52:36;52.33;;;29.13;;
54123;SDS011;55741;53.252;5.788;2023-02-23T06:55:02;48.08;;;27.90;;
54123;SDS011;55741;53.252;5.788;2023-02-23T06:57:29;50.67;;;26.98;;
54123;SDS011;55741;53.252;5.788;2023-02-23T06:59:58;56.67;;;27.27;;
54123;SDS011;55741;53.252;5.788;2023-02-23T07:02:25;49.28;;;26.77;;
54123;SDS011;55741;53.252;5.788;2023-02-23T07:04:52;48.75;;;26.02;;
54123;SDS011;55741;53.252;5.788;2023-02-23T07:07:18;48.60;;;25.88;;
54123;SDS011;55741;53.252;5.788;2023-02-23T07:09:44;46.13;;;26.75;;
54123;SDS011;55741;53.252;5.788;2023-02-23T07:12:09;48.97;;;26.23;;
54123;SDS011;55741;53.252;5.788;2023-02-23T07:14:35;48.78;;;26.77;;
54123;SDS011;55741;53.252;5.788;2023-02-23T07:17:03;52.20;;;27.33;;
54123;SDS011;55741;53.252;5.788;2023-02-23T07:19:30;50.85;;;27.35;;
54123;SDS011;55741;53.252;5.788;2023-02-23T07:21:56;47.60;;;26.60;;
54123;SDS011;55741;53.252;5.788;2023-02-23T07:24:22;48.63;;;27.95;;
54123;SDS011;55741;53.252;5.788;2023-02-23T07:26:48;52.00;;;28.25;;
54123;SDS011;55741;53.252;5.788;2023-02-23T07:29:14;55.40;;;29.60;;
54123;SDS011;55741;53.252;5.788;2023-02-23T07:31:40;50.45;;;27.15;;
54123;SDS011;55741;53.252;5.788;2023-02-23T07:34:09;49.22;;;28.25;;
54123;SDS011;55741;53.252;5.788;2023-02-23T07:36:35;52.15;;;28.35;;
54123;SDS011;55741;53.252;5.788;2023-02-23T07:39:05;47.33;;;27.80;;
54123;SDS011;55741;53.252;5.788;2023-02-23T07:41:31;50.10;;;27.45;;
54123;SDS011;55741;53.252;5.788;2023-02-23T07:43:57;53.78;;;27.67;;
54123;SDS011;55741;53.252;5.788;2023-02-23T07:46:24;53.85;;;28.02;;
54123;SDS011;55741;53.252;5.788;2023-02-23T07:48:50;52.58;;;27.65;;
54123;SDS011;55741;53.252;5.788;2023-02-23T07:51:16;62.22;;;28.85;;
54123;SDS011;55741;53.252;5.788;2023-02-23T07:53:54;56.72;;;28.95;;
54123;SDS011;55741;53.252;5.788;2023-02-23T07:56:19;54.28;;;29.65;;
54123;SDS011;55741;53.252;5.788;2023-02-23T07:58:45;56.70;;;30.40;;
54123;SDS011;55741;53.252;5.788;2023-02-23T08:01:12;62.13;;;31.60;;
54123;SDS011;55741;53.252;5.788;2023-02-23T08:03:38;55.65;;;28.98;;
54123;SDS011;55741;53.252;5.788;2023-02-23T08:06:11;54.53;;;29.00;;
54123;SDS011;55741;53.252;5.788;2023-02-23T08:08:37;61.15;;;29.98;;
54123;SDS011;55741;53.252;5.788;2023-02-23T08:11:04;57.10;;;29.40;;
54123;SDS011;55741;53.252;5.788;2023-02-23T08:13:30;57.28;;;29.60;;
54123;SDS011;55741;53.252;5.788;2023-02-23T08:15:56;59.20;;;29.52;;
54123;SDS011;55741;53.252;5.788;2023-02-23T08:18:24;57.28;;;28.60;;
54123;SDS011;55741;53.252;5.788;2023-02-23T08:20:56;58.53;;;27.25;;
54123;SDS011;55741;53.252;5.788;2023-02-23T08:23:25;55.05;;;28.20;;
54123;SDS011;55741;53.252;5.788;2023-02-23T08:25:53;66.07;;;29.83;;
54123;SDS011;55741;53.252;5.788;2023-02-23T08:28:19;60.35;;;30.02;;
54123;SDS011;55741;53.252;5.788;2023-02-23T08:30:45;58.67;;;30.40;;
54123;SDS011;55741;53.252;5.788;2023-02-23T08:33:11;60.88;;;29.73;;
54123;SDS011;55741;53.252;5.788;2023-02-23T08:35:37;60.35;;;28.92;;
54123;SDS011;55741;53.252;5.788;2023-02-23T08:38:03;61.05;;;29.20;;
54123;SDS011;55741;53.252;5.788;2023-02-23T08:40:29;62.65;;;30.00;;
54123;SDS011;55741;53.252;5.788;2023-02-23T08:42:54;70.10;;;31.30;;
54123;SDS011;55741;53.252;5.788;2023-02-23T08:45:20;68.80;;;31.77;;
54123;SDS011;55741;53.252;5.788;2023-02-23T08:47:46;65.28;;;30.65;;
54123;SDS011;55741;53.252;5.788;2023-02-23T08:50:12;71.03;;;31.77;;
54123;SDS011;55741;53.252;5.788;2023-02-23T08:52:40;67.97;;;32.58;;
54123;SDS011;55741;53.252;5.788;2023-02-23T08:55:07;66.43;;;32.22;;
54123;SDS011;55741;53.252;5.788;2023-02-23T08:57:35;77.53;;;34.92;;
54123;SDS011;55741;53.252;5.788;2023-02-23T09:00:02;76.15;;;33.63;;
54123;SDS011;55741;53.252;5.788;2023-02-23T09:02:38;72.20;;;33.58;;
54123;SDS011;55741;53.252;5.788;2023-02-23T09:05:06;67.60;;;33.38;;
54123;SDS011;55741;53.252;5.788;2023-02-23T09:07:33;71.95;;;34.47;;
54123;SDS011;55741;53.252;5.788;2023-02-23T09:09:58;78.03;;;36.03;;
54123;SDS011;55741;53.252;5.788;2023-02-23T09:12:24;77.55;;;36.20;;
54123;SDS011;55741;53.252;5.788;2023-02-23T09:14:50;80.55;;;36.45;;
54123;SDS011;55741;53.252;5.788;2023-02-23T09:17:18;74.90;;;35.95;;
54123;SDS011;55741;53.252;5.788;2023-02-23T09:19:46;79.97;;;36.08;;
54123;SDS011;55741;53.252;5.788;2023-02-23T09:22:11;78.80;;;35.85;;
54123;SDS011;55741;53.252;5.788;2023-02-23T09:24:37;83.47;;;37.28;;
54123;SDS011;55741;53.252;5.788;2023-02-23T09:27:04;73.28;;;33.97;;
54123;SDS011;55741;53.252;5.788;2023-02-23T09:29:31;72.90;;;33.72;;
54123;SDS011;55741;53.252;5.788;2023-02-23T09:31:58;76.72;;;34.17;;
54123;SDS011;55741;53.252;5.788;2023-02-23T09:34:24;76.45;;;36.10;;
54123;SDS011;55741;53.252;5.788;2023-02-23T09:36:50;81.60;;;35.95;;
54123;SDS011;55741;53.252;5.788;2023-02-23T09:39:16;84.30;;;38.60;;
54123;SDS011;55741;53.252;5.788;2023-02-23T09:46:53;109.88;;;42.80;;
54123;SDS011;55741;53.252;5.788;2023-02-23T09:49:30;114.43;;;44.00;;
54123;SDS011;55741;53.252;5.788;2023-02-23T09:51:59;113.55;;;45.85;;
54123;SDS011;55741;53.252;5.788;2023-02-23T09:54:29;111.25;;;44.53;;
54123;SDS011;55741;53.252;5.788;2023-02-23T09:56:59;112.13;;;42.40;;
54123;SDS011;55741;53.252;5.788;2023-02-23T09:59:29;104.97;;;41.35;;
54123;SDS011;55741;53.252;5.788;2023-02-23T10:05:01;115.22;;;42.63;;
54123;SDS011;55741;53.252;5.788;2023-02-23T10:13:05;123.60;;;46.85;;
54123;SDS011;55741;53.252;5.788;2023-02-23T10:15:56;131.98;;;47.85;;
54123;SDS011;55741;53.252;5.788;2023-02-23T10:18:39;126.32;;;46.38;;
54123;SDS011;55741;53.252;5.788;2023-02-23T10:21:22;116.90;;;44.17;;
54123;SDS011;55741;53.252;5.788;2023-02-23T10:23:52;128.23;;;47.65;;
54123;SDS011;55741;53.252;5.788;2023-02-23T10:26:38;137.80;;;46.90;;
54123;SDS011;55741;53.252;5.788;2023-02-23T10:29:17;138.88;;;44.55;;
54123;SDS011;55741;53.252;5.788;2023-02-23T10:31:48;136.68;;;46.65;;
54123;SDS011;55741;53.252;5.788;2023-02-23T10:34:18;139.25;;;47.40;;
54123;SDS011;55741;53.252;5.788;2023-02-23T10:36:49;160.75;;;53.95;;
54123;SDS011;55741;53.252;5.788;2023-02-23T10:39:21;158.45;;;53.13;;
54123;SDS011;55741;53.252;5.788;2023-02-23T10:41:47;141.43;;;49.22;;
54123;SDS011;55741;53.252;5.788;2023-02-23T10:44:17;141.80;;;49.72;;
54123;SDS011;55741;53.252;5.788;2023-02-23T10:46:49;133.38;;;48.17;;
54123;SDS011;55741;53.252;5.788;2023-02-23T10:49:21;134.45;;;48.72;;
54123;SDS011;55741;53.252;5.788;2023-02-23T10:51:54;134.98;;;49.92;;
54123;SDS011;55741;53.252;5.788;2023-02-23T10:57:08;133.13;;;49.50;;
54123;SDS011;55741;53.252;5.788;2023-02-23T10:59:39;125.05;;;45.97;;
54123;SDS011;55741;53.252;5.788;2023-02-23T11:02:22;131.10;;;48.33;;
54123;SDS011;55741;53.252;5.788;2023-02-23T11:04:50;123.15;;;46.60;;
54123;SDS011;55741;53.252;5.788;2023-02-23T11:07:22;131.77;;;49.83;;
54123;SDS011;55741;53.252;5.788;2023-02-23T11:09:51;120.75;;;45.30;;
54123;SDS011;55741;53.252;5.788;2023-02-23T11:12:24;115.70;;;43.00;;
54123;SDS011;55741;53.252;5.788;2023-02-23T11:15:00;121.25;;;42.08;;
54123;SDS011;55741;53.252;5.788;2023-02-23T11:17:59;142.85;;;46.75;;
54123;SDS011;55741;53.252;5.788;2023-02-23T11:20:34;131.52;;;44.08;;
54123;SDS011;55741;53.252;5.788;2023-02-23T11:23:11;101.43;;;35.10;;
54123;SDS011;55741;53.252;5.788;2023-02-23T11:25:45;93.22;;;32.45;;
54123;SDS011;55741;53.252;5.788;2023-02-23T11:28:18;85.63;;;30.88;;
54123;SDS011;55741;53.252;5.788;2023-02-23T11:30:50;69.40;;;24.23;;
54123;SDS011;55741;53.252;5.788;2023-02-23T11:33:16;42.70;;;14.05;;
54123;SDS011;55741;53.252;5.788;2023-02-23T11:35:45;37.70;;;8.90;;
54123;SDS011;55741;53.252;5.788;2023-02-23T11:43:25;15.98;;;2.53;;
54123;SDS011;55741;53.252;5.788;2023-02-23T11:45:51;15.02;;;2.08;;
54123;SDS011;55741;53.252;5.788;2023-02-23T11:48:27;10.55;;;2.80;;
54123;SDS011;55741;53.252;5.788;2023-02-23T11:50:57;18.75;;;2.95;;
54123;SDS011;55741;53.252;5.788;2023-02-23T11:55:57;21.88;;;3.90;;
54123;SDS011;55741;53.252;5.788;2023-02-23T11:58:37;22.75;;;4.30;;
54123;SDS011;55741;53.252;5.788;2023-02-23T12:01:10;24.98;;;4.82;;
54123;SDS011;55741;53.252;5.788;2023-02-23T12:03:56;34.93;;;5.43;;
54123;SDS011;55741;53.252;5.788;2023-02-23T12:06:33;35.47;;;6.25;;
54123;SDS011;55741;53.252;5.788;2023-02-23T12:11:38;33.97;;;5.88;;
54123;SDS011;55741;53.252;5.788;2023-02-23T12:14:17;55.67;;;8.20;;
54123;SDS011;55741;53.252;5.788;2023-02-23T12:16:46;51.35;;;8.23;;
54123;SDS011;55741;53.252;5.788;2023-02-23T12:19:29;47.42;;;7.38;;
54123;SDS011;55741;53.252;5.788;2023-02-23T12:22:42;57.40;;;8.43;;
54123;SDS011;55741;53.252;5.788;2023-02-23T12:25:03;46.95;;;7.72;;
54123;SDS011;55741;53.252;5.788;2023-02-23T12:27:41;55.38;;;8.90;;
54123;SDS011;55741;53.252;5.788;2023-02-23T12:30:19;56.28;;;7.43;;
54123;SDS011;55741;53.252;5.788;2023-02-23T12:32:54;49.90;;;9.50;;
54123;SDS011;55741;53.252;5.788;2023-02-23T12:35:29;50.05;;;7.57;;
54123;SDS011;55741;53.252;5.788;2023-02-23T12:40:53;52.25;;;7.65;;
54123;SDS011;55741;53.252;5.788;2023-02-23T12:43:28;51.13;;;9.63;;
54123;SDS011;55741;53.252;5.788;2023-02-23T12:46:25;42.22;;;8.23;;
54123;SDS011;55741;53.252;5.788;2023-02-23T12:54:37;45.95;;;7.97;;
54123;SDS011;55741;53.252;5.788;2023-02-23T13:08:40;46.58;;;7.38;;
54123;SDS011;55741;53.252;5.788;2023-02-23T13:11:19;41.60;;;7.75;;
54123;SDS011;55741;53.252;5.788;2023-02-23T13:14:04;43.83;;;8.13;;
54123;SDS011;55741;53.252;5.788;2023-02-23T13:16:46;42.17;;;6.97;;
54123;SDS011;55741;53.252;5.788;2023-02-23T13:21:50;37.17;;;6.60;;
54123;SDS011;55741;53.252;5.788;2023-02-23T13:24:34;51.25;;;8.95;;
54123;SDS011;55741;53.252;5.788;2023-02-23T13:27:19;42.97;;;6.88;;
54123;SDS011;55741;53.252;5.788;2023-02-23T13:29:53;46.45;;;7.57;;
54123;SDS011;55741;53.252;5.788;2023-02-23T13:32:24;55.85;;;9.00;;
54123;SDS011;55741;53.252;5.788;2023-02-23T13:35:16;66.65;;;10.93;;
54123;SDS011;55741;53.252;5.788;2023-02-23T13:37:47;53.50;;;8.35;;
54123;SDS011;55741;53.252;5.788;2023-02-23T13:43:17;46.00;;;8.70;;
54123;SDS011;55741;53.252;5.788;2023-02-23T13:51:43;53.60;;;9.48;;
54123;SDS011;55741;53.252;5.788;2023-02-23T13:56:46;47.95;;;9.50;;
54123;SDS011;55741;53.252;5.788;2023-02-23T13:59:19;43.95;;;7.30;;
54123;SDS011;55741;53.252;5.788;2023-02-23T14:01:52;46.42;;;7.20;;
54123;SDS011;55741;53.252;5.788;2023-02-23T14:04:26;47.25;;;7.25;;
54123;SDS011;55741;53.252;5.788;2023-02-23T14:09:37;50.75;;;7.43;;
54123;SDS011;55741;53.252;5.788;2023-02-23T14:12:43;46.20;;;7.65;;
54123;SDS011;55741;53.252;5.788;2023-02-23T14:17:59;43.92;;;6.25;;
54123;SDS011;55741;53.252;5.788;2023-02-23T14:28:38;31.08;;;4.93;;
54123;SDS011;55741;53.252;5.788;2023-02-23T14:47:08;26.42;;;7.63;;
54123;SDS011;55741;53.252;5.788;2023-02-23T14:49:41;41.92;;;9.13;;
54123;SDS011;55741;53.252;5.788;2023-02-23T14:52:20;32.17;;;7.13;;
54123;SDS011;55741;53.252;5.788;2023-02-23T14:54:48;23.42;;;5.38;;
54123;SDS011;55741;53.252;5.788;2023-02-23T14:57:19;27.63;;;5.47;;
54123;SDS011;55741;53.252;5.788;2023-02-23T14:59:58;25.65;;;5.68;;
54123;SDS011;55741;53.252;5.788;2023-02-23T15:02:27;30.50;;;6.10;;
54123;SDS011;55741;53.252;5.788;2023-02-23T15:04:54;38.85;;;5.90;;
54123;SDS011;55741;53.252;5.788;2023-02-23T15:09:58;24.15;;;4.80;;
54123;SDS011;55741;53.252;5.788;2023-02-23T15:12:29;19.63;;;4.28;;
54123;SDS011;55741;53.252;5.788;2023-02-23T15:15:00;24.08;;;4.15;;
54123;SDS011;55741;53.252;5.788;2023-02-23T15:17:29;24.10;;;4.85;;
54123;SDS011;55741;53.252;5.788;2023-02-23T15:20:04;26.73;;;4.70;;
54123;SDS011;55741;53.252;5.788;2023-02-23T15:22:34;25.55;;;4.05;;
54123;SDS011;55741;53.252;5.788;2023-02-23T15:25:05;27.17;;;5.45;;
54123;SDS011;55741;53.252;5.788;2023-02-23T15:27:39;23.90;;;3.72;;
54123;SDS011;55741;53.252;5.788;2023-02-23T15:30:18;35.00;;;4.13;;
54123;SDS011;55741;53.252;5.788;2023-02-23T15:32:59;26.52;;;4.53;;
54123;SDS011;55741;53.252;5.788;2023-02-23T15:35:25;20.00;;;3.42;;
54123;SDS011;55741;53.252;5.788;2023-02-23T15:37:52;19.92;;;3.78;;
54123;SDS011;55741;53.252;5.788;2023-02-23T15:40:19;26.33;;;3.83;;
54123;SDS011;55741;53.252;5.788;2023-02-23T15:42:48;19.48;;;4.13;;
54123;SDS011;55741;53.252;5.788;2023-02-23T15:45:23;24.27;;;4.20;;
54123;SDS011;55741;53.252;5.788;2023-02-23T15:47:55;30.20;;;4.10;;
54123;SDS011;55741;53.252;5.788;2023-02-23T15:50:26;19.27;;;3.65;;
54123;SDS011;55741;53.252;5.788;2023-02-23T15:52:57;23.75;;;4.40;;
54123;SDS011;55741;53.252;5.788;2023-02-23T15:55:27;25.00;;;3.75;;
54123;SDS011;55741;53.252;5.788;2023-02-23T15:58:01;20.77;;;4.38;;
54123;SDS011;55741;53.252;5.788;2023-02-23T16:00:40;23.08;;;3.55;;
54123;SDS011;55741;53.252;5.788;2023-02-23T16:03:20;22.10;;;3.85;;
54123;SDS011;55741;53.252;5.788;2023-02-23T16:05:54;28.80;;;5.87;;
54123;SDS011;55741;53.252;5.788;2023-02-23T16:08:31;22.85;;;4.15;;
54123;SDS011;55741;53.252;5.788;2023-02-23T16:11:02;19.52;;;4.20;;
54123;SDS011;55741;53.252;5.788;2023-02-23T16:13:36;22.88;;;3.55;;
54123;SDS011;55741;53.252;5.788;2023-02-23T16:16:03;27.70;;;6.55;;
54123;SDS011;55741;53.252;5.788;2023-02-23T16:18:36;26.55;;;4.82;;
54123;SDS011;55741;53.252;5.788;2023-02-23T16:21:04;23.38;;;4.55;;
54123;SDS011;55741;53.252;5.788;2023-02-23T16:23:33;22.45;;;3.83;;
54123;SDS011;55741;53.252;5.788;2023-02-23T16:26:06;27.60;;;5.90;;
54123;SDS011;55741;53.252;5.788;2023-02-23T16:28:32;23.38;;;3.95;;
54123;SDS011;55741;53.252;5.788;2023-02-23T16:31:03;25.83;;;3.70;;
54123;SDS011;55741;53.252;5.788;2023-02-23T16:33:50;27.75;;;4.07;;
54123;SDS011;55741;53.252;5.788;2023-02-23T16:36:20;25.42;;;4.88;;
54123;SDS011;55741;53.252;5.788;2023-02-23T16:38:58;29.70;;;4.93;;
54123;SDS011;55741;53.252;5.788;2023-02-23T16:41:27;20.35;;;4.18;;
54123;SDS011;55741;53.252;5.788;2023-02-23T16:43:56;18.40;;;4.22;;
54123;SDS011;55741;53.252;5.788;2023-02-23T16:46:27;21.45;;;3.95;;
54123;SDS011;55741;53.252;5.788;2023-02-23T16:48:57;30.23;;;4.30;;
54123;SDS011;55741;53.252;5.788;2023-02-23T16:51:29;23.63;;;4.57;;
54123;SDS011;55741;53.252;5.788;2023-02-23T16:53:58;27.30;;;4.05;;
54123;SDS011;55741;53.252;5.788;2023-02-23T16:56:24;19.75;;;3.70;;
54123;SDS011;55741;53.252;5.788;2023-02-23T16:58:53;23.63;;;4.63;;
54123;SDS011;55741;53.252;5.788;2023-02-23T17:01:22;34.50;;;6.82;;
54123;SDS011;55741;53.252;5.788;2023-02-23T17:03:48;19.85;;;4.25;;